sensor_id;sensor_type;location;lat;lon;timestamp;pressure;altitude;pressure_sealevel;temperature;humidity
56632;BME280;42503;39.928;-75.152;2023-07-20T00:06:03;101417.31;;;26.52;53.53
56632;BME280;42503;39.928;-75.152;2023-07-20T00:16:05;101410.78;;;26.57;53.73
56632;BME280;42503;39.928;-75.152;2023-07-20T00:26:06;101409.22;;;26.51;53.21
56632;BME280;42503;39.928;-75.152;2023-07-20T00:36:08;101414.31;;;26.49;53.30
56632;BME280;42503;39.928;-75.152;2023-07-20T00:46:11;101432.91;;;26.45;53.02
56632;BME280;42503;39.928;-75.152;2023-07-20T00:56:15;101434.09;;;26.39;53.00
56632;BME280;42503;39.928;-75.152;2023-07-20T01:16:23;101448.84;;;26.30;53.08
56632;BME280;42503;39.928;-75.152;2023-07-20T01:26:45;101444.00;;;26.17;52.17
56632;BME280;42503;39.928;-75.152;2023-07-20T01:36:53;101474.59;;;26.32;53.24
56632;BME280;42503;39.928;-75.152;2023-07-20T01:46:56;101466.72;;;26.34;52.43
56632;BME280;42503;39.928;-75.152;2023-07-20T01:56:57;101480.38;;;26.22;52.41
56632;BME280;42503;39.928;-75.152;2023-07-20T02:06:58;101500.53;;;26.24;52.72
56632;BME280;42503;39.928;-75.152;2023-07-20T02:17:04;101502.50;;;26.05;52.46
56632;BME280;42503;39.928;-75.152;2023-07-20T02:27:06;101508.09;;;26.43;56.14
56632;BME280;42503;39.928;-75.152;2023-07-20T02:37:08;101513.72;;;26.61;56.00
56632;BME280;42503;39.928;-75.152;2023-07-20T02:47:10;101499.75;;;26.89;55.45
56632;BME280;42503;39.928;-75.152;2023-07-20T02:57:13;101518.34;;;27.04;55.24
56632;BME280;42503;39.928;-75.152;2023-07-20T03:07:15;101472.34;;;27.00;54.68
56632;BME280;42503;39.928;-75.152;2023-07-20T03:17:16;101498.81;;;27.13;54.29
56632;BME280;42503;39.928;-75.152;2023-07-20T03:27:21;101526.72;;;27.36;54.53
56632;BME280;42503;39.928;-75.152;2023-07-20T03:37:22;101486.13;;;27.43;54.25
56632;BME280;42503;39.928;-75.152;2023-07-20T03:47:24;101483.75;;;27.50;53.78
56632;BME280;42503;39.928;-75.152;2023-07-20T03:57:25;101488.00;;;27.47;53.83
56632;BME280;42503;39.928;-75.152;2023-07-20T04:07:26;101468.00;;;27.49;53.74
56632;BME280;42503;39.928;-75.152;2023-07-20T04:17:27;101450.28;;;27.62;53.37
56632;BME280;42503;39.928;-75.152;2023-07-20T04:27:29;101454.47;;;27.65;53.17
56632;BME280;42503;39.928;-75.152;2023-07-20T04:37:30;101465.59;;;27.70;53.23
56632;BME280;42503;39.928;-75.152;2023-07-20T04:47:32;101459.06;;;27.74;52.92
56632;BME280;42503;39.928;-75.152;2023-07-20T04:57:33;101451.44;;;27.75;52.90
56632;BME280;42503;39.928;-75.152;2023-07-20T05:07:35;101457.78;;;27.80;52.74
56632;BME280;42503;39.928;-75.152;2023-07-20T05:17:36;101467.59;;;27.83;52.70
56632;BME280;42503;39.928;-75.152;2023-07-20T05:27:39;101492.56;;;27.84;52.55
56632;BME280;42503;39.928;-75.152;2023-07-20T05:37:40;101488.09;;;27.83;52.39
56632;BME280;42503;39.928;-75.152;2023-07-20T05:47:42;101488.81;;;27.89;52.20
56632;BME280;42503;39.928;-75.152;2023-07-20T05:57:46;101478.09;;;27.91;52.19
56632;BME280;42503;39.928;-75.152;2023-07-20T06:07:49;101471.19;;;27.97;51.83
56632;BME280;42503;39.928;-75.152;2023-07-20T06:17:50;101450.69;;;27.97;51.87
56632;BME280;42503;39.928;-75.152;2023-07-20T06:27:55;101440.25;;;27.97;51.86
56632;BME280;42503;39.928;-75.152;2023-07-20T06:37:57;101417.53;;;27.94;51.77
56632;BME280;42503;39.928;-75.152;2023-07-20T06:48:00;101436.16;;;28.03;51.54
56632;BME280;42503;39.928;-75.152;2023-07-20T06:58:01;101435.03;;;28.04;51.49
56632;BME280;42503;39.928;-75.152;2023-07-20T07:08:04;101427.91;;;28.07;51.58
56632;BME280;42503;39.928;-75.152;2023-07-20T07:18:06;101418.16;;;28.04;51.67
56632;BME280;42503;39.928;-75.152;2023-07-20T07:28:07;101410.13;;;27.98;51.47
56632;BME280;42503;39.928;-75.152;2023-07-20T07:38:08;101421.66;;;28.10;51.15
56632;BME280;42503;39.928;-75.152;2023-07-20T07:48:10;101420.63;;;28.06;51.48
56632;BME280;42503;39.928;-75.152;2023-07-20T07:58:15;101408.22;;;28.07;51.45
56632;BME280;42503;39.928;-75.152;2023-07-20T08:08:17;101411.75;;;28.12;51.31
56632;BME280;42503;39.928;-75.152;2023-07-20T08:18:18;101398.13;;;28.06;51.10
56632;BME280;42503;39.928;-75.152;2023-07-20T08:28:20;101398.50;;;28.13;51.07
56632;BME280;42503;39.928;-75.152;2023-07-20T08:38:21;101400.19;;;28.14;51.07
56632;BME280;42503;39.928;-75.152;2023-07-20T08:48:24;101388.03;;;28.05;51.31
56632;BME280;42503;39.928;-75.152;2023-07-20T08:58:26;101405.00;;;28.14;51.13
56632;BME280;42503;39.928;-75.152;2023-07-20T09:08:29;101406.84;;;28.18;50.89
56632;BME280;42503;39.928;-75.152;2023-07-20T09:18:31;101386.47;;;27.99;51.24
56632;BME280;42503;39.928;-75.152;2023-07-20T09:28:42;101414.75;;;28.16;50.93
56632;BME280;42503;39.928;-75.152;2023-07-20T09:38:44;101423.72;;;28.18;50.84
56632;BME280;42503;39.928;-75.152;2023-07-20T09:48:53;101431.44;;;28.12;51.17
56632;BME280;42503;39.928;-75.152;2023-07-20T09:58:55;101418.09;;;28.18;51.09
56632;BME280;42503;39.928;-75.152;2023-07-20T10:09:01;101424.72;;;28.22;50.79
56632;BME280;42503;39.928;-75.152;2023-07-20T10:19:27;101420.38;;;28.16;51.16
56632;BME280;42503;39.928;-75.152;2023-07-20T10:29:32;101424.03;;;28.17;50.90
56632;BME280;42503;39.928;-75.152;2023-07-20T10:39:35;101430.31;;;28.14;51.12
56632;BME280;42503;39.928;-75.152;2023-07-20T10:49:59;101436.50;;;28.02;50.99
56632;BME280;42503;39.928;-75.152;2023-07-20T11:00:10;101452.69;;;28.19;51.16
56632;BME280;42503;39.928;-75.152;2023-07-20T11:10:18;101451.13;;;28.12;51.09
56632;BME280;42503;39.928;-75.152;2023-07-20T11:20:20;101470.53;;;28.14;51.04
56632;BME280;42503;39.928;-75.152;2023-07-20T11:30:22;101481.97;;;28.18;50.88
56632;BME280;42503;39.928;-75.152;2023-07-20T11:40:23;101504.06;;;28.24;51.22
56632;BME280;42503;39.928;-75.152;2023-07-20T11:50:26;101486.63;;;28.22;50.95
56632;BME280;42503;39.928;-75.152;2023-07-20T12:00:27;101503.72;;;28.26;51.04
56632;BME280;42503;39.928;-75.152;2023-07-20T12:10:38;101500.06;;;28.25;50.91
56632;BME280;42503;39.928;-75.152;2023-07-20T12:21:01;101497.25;;;28.25;50.96
56632;BME280;42503;39.928;-75.152;2023-07-20T12:31:09;101488.00;;;28.25;50.96
56632;BME280;42503;39.928;-75.152;2023-07-20T12:41:17;101484.34;;;28.24;51.16
56632;BME280;42503;39.928;-75.152;2023-07-20T12:51:18;101499.44;;;28.28;51.27
56632;BME280;42503;39.928;-75.152;2023-07-20T13:01:20;101461.06;;;28.10;51.02
56632;BME280;42503;39.928;-75.152;2023-07-20T13:11:22;101487.66;;;28.26;51.18
56632;BME280;42503;39.928;-75.152;2023-07-20T13:21:23;101476.94;;;28.28;51.50
56632;BME280;42503;39.928;-75.152;2023-07-20T13:31:26;101403.06;;;28.00;51.98
56632;BME280;42503;39.928;-75.152;2023-07-20T13:41:33;101465.56;;;28.33;52.47
56632;BME280;42503;39.928;-75.152;2023-07-20T13:51:35;101454.69;;;28.41;53.57
56632;BME280;42503;39.928;-75.152;2023-07-20T14:01:36;101428.38;;;28.36;54.50
56632;BME280;42503;39.928;-75.152;2023-07-20T14:11:38;101431.53;;;28.44;54.95
56632;BME280;42503;39.928;-75.152;2023-07-20T14:21:39;101448.34;;;28.57;55.05
56632;BME280;42503;39.928;-75.152;2023-07-20T14:31:41;101406.56;;;28.06;54.82
56632;BME280;42503;39.928;-75.152;2023-07-20T14:41:42;101437.16;;;27.85;54.47
56632;BME280;42503;39.928;-75.152;2023-07-20T14:51:43;101440.63;;;27.68;54.45
56632;BME280;42503;39.928;-75.152;2023-07-20T15:01:47;101417.63;;;27.39;54.14
56632;BME280;42503;39.928;-75.152;2023-07-20T15:11:49;101431.56;;;27.44;54.35
56632;BME280;42503;39.928;-75.152;2023-07-20T15:21:50;101435.03;;;27.41;54.44
56632;BME280;42503;39.928;-75.152;2023-07-20T15:31:55;101428.47;;;27.31;54.94
56632;BME280;42503;39.928;-75.152;2023-07-20T15:41:56;101412.03;;;27.25;55.52
56632;BME280;42503;39.928;-75.152;2023-07-20T15:51:57;101408.59;;;27.28;56.36
56632;BME280;42503;39.928;-75.152;2023-07-20T16:01:59;101392.16;;;27.21;56.45
56632;BME280;42503;39.928;-75.152;2023-07-20T16:12:00;101339.63;;;26.80;56.37
56632;BME280;42503;39.928;-75.152;2023-07-20T16:22:04;101382.72;;;27.17;56.01
56632;BME280;42503;39.928;-75.152;2023-07-20T16:32:06;101374.19;;;27.08;55.42
56632;BME280;42503;39.928;-75.152;2023-07-20T16:42:07;101342.22;;;26.91;55.10
56632;BME280;42503;39.928;-75.152;2023-07-20T16:52:10;101352.50;;;26.95;54.64
56632;BME280;42503;39.928;-75.152;2023-07-20T17:02:12;101352.81;;;26.94;54.09
56632;BME280;42503;39.928;-75.152;2023-07-20T17:12:13;101351.25;;;26.88;53.67
56632;BME280;42503;39.928;-75.152;2023-07-20T17:22:15;101312.78;;;26.74;53.43
56632;BME280;42503;39.928;-75.152;2023-07-20T17:32:16;101345.63;;;26.88;53.18
56632;BME280;42503;39.928;-75.152;2023-07-20T17:42:17;101310.38;;;26.81;53.05
56632;BME280;42503;39.928;-75.152;2023-07-20T17:52:19;101329.50;;;26.79;52.99
56632;BME280;42503;39.928;-75.152;2023-07-20T18:02:21;101311.13;;;26.73;52.84
56632;BME280;42503;39.928;-75.152;2023-07-20T18:12:26;101300.38;;;26.75;52.53
56632;BME280;42503;39.928;-75.152;2023-07-20T18:22:27;101292.72;;;26.67;52.61
56632;BME280;42503;39.928;-75.152;2023-07-20T18:32:28;101278.78;;;26.62;52.85
56632;BME280;42503;39.928;-75.152;2023-07-20T18:42:30;101290.75;;;26.68;52.75
56632;BME280;42503;39.928;-75.152;2023-07-20T18:52:31;101295.53;;;26.67;53.02
56632;BME280;42503;39.928;-75.152;2023-07-20T19:02:33;101288.88;;;26.63;53.35
56632;BME280;42503;39.928;-75.152;2023-07-20T19:12:34;101255.91;;;26.55;52.89
56632;BME280;42503;39.928;-75.152;2023-07-20T19:22:36;101262.56;;;26.59;53.14
56632;BME280;42503;39.928;-75.152;2023-07-20T19:32:37;101260.38;;;26.56;53.41
56632;BME280;42503;39.928;-75.152;2023-07-20T19:42:38;101259.53;;;26.55;53.21
56632;BME280;42503;39.928;-75.152;2023-07-20T19:52:43;101250.81;;;26.57;53.56
56632;BME280;42503;39.928;-75.152;2023-07-20T20:02:44;101269.94;;;26.55;53.42
56632;BME280;42503;39.928;-75.152;2023-07-20T20:12:45;101241.25;;;26.44;53.56
56632;BME280;42503;39.928;-75.152;2023-07-20T20:22:47;101235.53;;;26.49;53.15
56632;BME280;42503;39.928;-75.152;2023-07-20T20:32:50;101222.44;;;26.45;52.97
56632;BME280;42503;39.928;-75.152;2023-07-20T20:42:51;101151.34;;;26.08;53.03
56632;BME280;42503;39.928;-75.152;2023-07-20T20:52:52;101186.16;;;26.34;53.04
56632;BME280;42503;39.928;-75.152;2023-07-20T21:02:54;101205.69;;;26.40;53.02
56632;BME280;42503;39.928;-75.152;2023-07-20T21:12:56;101211.91;;;26.36;52.26
56632;BME280;42503;39.928;-75.152;2023-07-20T21:22:57;101190.91;;;26.34;52.97
56632;BME280;42503;39.928;-75.152;2023-07-20T21:32:59;101164.00;;;26.33;52.79
56632;BME280;42503;39.928;-75.152;2023-07-20T21:43:00;101149.16;;;26.32;52.92
56632;BME280;42503;39.928;-75.152;2023-07-20T21:53:02;101124.34;;;26.26;52.51
56632;BME280;42503;39.928;-75.152;2023-07-20T22:03:03;101149.75;;;26.29;52.56
56632;BME280;42503;39.928;-75.152;2023-07-20T22:13:06;101145.31;;;26.15;52.55
56632;BME280;42503;39.928;-75.152;2023-07-20T22:23:07;101131.72;;;26.22;52.88
56632;BME280;42503;39.928;-75.152;2023-07-20T22:33:08;101131.50;;;26.18;52.43
56632;BME280;42503;39.928;-75.152;2023-07-20T22:43:10;101131.50;;;26.18;52.23
56632;BME280;42503;39.928;-75.152;2023-07-20T22:53:11;101134.31;;;26.18;52.51
56632;BME280;42503;39.928;-75.152;2023-07-20T23:03:13;101130.66;;;26.18;52.04
56632;BME280;42503;39.928;-75.152;2023-07-20T23:13:17;101125.78;;;26.09;51.42
56632;BME280;42503;39.928;-75.152;2023-07-20T23:23:18;101116.31;;;26.33;55.33
56632;BME280;42503;39.928;-75.152;2023-07-20T23:33:20;101112.78;;;26.55;55.39
56632;BME280;42503;39.928;-75.152;2023-07-20T23:43:21;101110.63;;;26.74;54.94
56632;BME280;42503;39.928;-75.152;2023-07-20T23:53:23;101113.41;;;26.88;54.89
